Time;durP1;ratioP1;P1;durP2;ratioP2;P2;SDS_P1;SDS_P2;PMS_P1;PMS_P2;Temp;Humidity;BMP_temperature;BMP_pressure;BME280_temperature;BME280_humidity;BME280_pressure;Samples;Min_cycle;Max_cycle;Signal;HPM_P1;HPM_P2
2023/08/16 00:00:55;;;;;;;5.32;2.10;;;16.40;99.90;;;;;;5058171;28;20118;-64
2023/08/16 00:03:21;;;;;;;2.83;1.92;;;16.40;99.90;;;;;;5060424;28;20051;-64
2023/08/16 00:05:47;;;;;;;3.20;2.03;;;16.40;99.90;;;;;;5043299;28;20109;-65
2023/08/16 00:08:13;;;;;;;2.95;1.73;;;16.30;99.90;;;;;;5058945;28;20076;-65
2023/08/16 00:10:38;;;;;;;4.03;2.10;;;16.30;99.90;;;;;;5060312;28;20056;-65
2023/08/16 00:13:05;;;;;;;5.43;2.55;;;16.30;99.90;;;;;;5075811;28;20052;-65
2023/08/16 00:15:31;;;;;;;3.67;2.60;;;16.30;99.90;;;;;;5060545;28;20487;-65
2023/08/16 00:17:56;;;;;;;3.60;2.30;;;16.30;99.90;;;;;;5041080;28;20048;-65
2023/08/16 00:20:26;;;;;;;4.63;2.45;;;16.20;99.90;;;;;;5059621;28;20056;-65
2023/08/16 00:22:52;;;;;;;5.35;2.95;;;16.20;99.90;;;;;;5077504;28;20131;-64
2023/08/16 00:25:18;;;;;;;4.20;2.22;;;16.20;99.90;;;;;;5057945;28;20040;-65
2023/08/16 00:27:44;;;;;;;3.30;2.15;;;16.20;99.90;;;;;;5078213;28;20045;-65
2023/08/16 00:30:11;;;;;;;4.15;2.38;;;16.20;99.90;;;;;;5040244;28;20446;-65
2023/08/16 00:32:37;;;;;;;5.47;2.83;;;16.20;99.90;;;;;;5060129;28;20080;-65
2023/08/16 00:35:04;;;;;;;6.57;2.13;;;16.20;99.90;;;;;;5056966;28;20040;-65
2023/08/16 00:37:30;;;;;;;3.55;2.20;;;16.10;99.90;;;;;;5043000;28;20084;-65
2023/08/16 00:39:56;;;;;;;5.13;2.30;;;16.10;99.90;;;;;;5058707;28;20128;-65
2023/08/16 00:42:22;;;;;;;3.70;2.17;;;16.10;99.90;;;;;;5058196;28;20056;-65
2023/08/16 00:44:48;;;;;;;4.78;2.42;;;16.00;99.90;;;;;;5059997;28;20052;-65
2023/08/16 00:47:14;;;;;;;4.80;2.25;;;16.00;99.90;;;;;;5056912;28;20037;-64
2023/08/16 00:49:41;;;;;;;4.18;2.17;;;15.90;99.90;;;;;;5059701;28;20074;-65
2023/08/16 00:52:09;;;;;;;4.75;2.47;;;15.80;99.90;;;;;;5074893;28;20109;-65
2023/08/16 00:54:35;;;;;;;4.32;2.80;;;15.80;99.90;;;;;;5077582;28;20060;-66
2023/08/16 00:57:03;;;;;;;3.33;2.20;;;15.80;99.90;;;;;;5076681;28;20109;-65
2023/08/16 00:59:28;;;;;;;4.28;2.22;;;15.80;99.90;;;;;;5076208;28;20718;-65
2023/08/16 01:01:54;;;;;;;2.50;1.90;;;15.80;99.90;;;;;;5059823;28;20056;-65
2023/08/16 01:04:20;;;;;;;3.53;2.30;;;15.90;99.90;;;;;;5074790;28;20036;-65
2023/08/16 01:06:48;;;;;;;5.07;2.50;;;15.80;99.90;;;;;;5077763;28;20048;-65
2023/08/16 01:09:13;;;;;;;2.63;2.33;;;15.80;99.90;;;;;;5074976;28;20029;-65
2023/08/16 01:11:48;;;;;;;3.85;1.83;;;15.80;99.90;;;;;;5077606;28;20060;-66
2023/08/16 01:14:29;;;;;;;4.88;2.17;;;15.60;99.90;;;;;;5058869;28;20067;-65
2023/08/16 01:16:56;;;;;;;2.28;1.60;;;15.50;99.90;;;;;;5057192;28;20051;-64
2023/08/16 01:19:29;;;;;;;4.38;2.05;;;15.50;99.90;;;;;;5077641;28;20444;-65
2023/08/16 01:22:16;;;;;;;2.35;2.00;;;15.60;99.90;;;;;;5056891;28;20063;-66
2023/08/16 01:24:56;;;;;;;2.10;1.73;;;15.60;99.90;;;;;;5059645;28;20087;-65
2023/08/16 01:27:22;;;;;;;4.70;1.83;;;15.50;99.90;;;;;;5044381;28;20072;-66
2023/08/16 01:29:49;;;;;;;2.97;2.08;;;15.40;99.90;;;;;;5040771;28;20514;-65
2023/08/16 01:32:15;;;;;;;2.47;2.17;;;15.40;99.90;;;;;;5077696;28;20057;-65
2023/08/16 01:34:41;;;;;;;3.65;1.98;;;15.40;99.90;;;;;;5075035;28;20049;-66
2023/08/16 01:37:07;;;;;;;4.30;1.83;;;15.40;99.90;;;;;;5077689;28;20114;-64
2023/08/16 01:39:33;;;;;;;3.63;2.00;;;15.30;99.90;;;;;;5075091;28;20060;-64
2023/08/16 01:41:59;;;;;;;7.18;2.03;;;15.30;99.90;;;;;;5080348;28;20040;-65
2023/08/16 01:44:26;;;;;;;2.00;1.80;;;15.30;99.90;;;;;;5080832;28;20083;-65
2023/08/16 01:46:53;;;;;;;2.72;1.80;;;15.30;99.90;;;;;;5078557;28;20602;-65
2023/08/16 01:49:20;;;;;;;2.00;1.90;;;15.30;99.90;;;;;;5063234;28;20048;-65
2023/08/16 01:51:46;;;;;;;4.38;2.03;;;15.30;99.90;;;;;;5040152;28;20460;-65
2023/08/16 01:54:12;;;;;;;4.05;2.40;;;15.30;99.90;;;;;;5061136;28;20076;-65
2023/08/16 01:56:38;;;;;;;4.15;2.08;;;15.40;99.90;;;;;;5057093;28;20060;-65
2023/08/16 01:59:04;;;;;;;2.90;2.15;;;15.30;99.90;;;;;;5058778;28;20055;-65
2023/08/16 02:01:29;;;;;;;4.32;2.13;;;15.30;99.90;;;;;;5060150;28;20080;-65
2023/08/16 02:03:55;;;;;;;8.80;2.67;;;15.10;99.90;;;;;;5057312;28;20131;-65
2023/08/16 02:06:22;;;;;;;5.22;2.58;;;15.00;99.90;;;;;;5061019;28;20122;-65
2023/08/16 02:08:47;;;;;;;2.70;2.50;;;15.00;99.90;;;;;;5040046;28;20128;-65
2023/08/16 02:11:13;;;;;;;5.90;2.70;;;15.00;99.90;;;;;;5060764;28;20137;-66
2023/08/16 02:13:39;;;;;;;3.38;2.45;;;15.10;99.90;;;;;;5056708;28;20463;-65
2023/08/16 02:16:05;;;;;;;3.78;2.78;;;15.10;99.90;;;;;;5060222;28;20047;-65
2023/08/16 02:18:31;;;;;;;6.45;2.40;;;15.10;99.90;;;;;;5059603;28;20053;-65
2023/08/16 02:20:57;;;;;;;3.85;2.47;;;15.10;99.90;;;;;;5058586;28;20463;-65
2023/08/16 02:23:23;;;;;;;4.00;2.83;;;15.10;99.90;;;;;;5060594;28;20063;-65
2023/08/16 02:25:49;;;;;;;5.20;2.97;;;15.10;99.90;;;;;;5039346;28;20041;-65
2023/08/16 02:28:15;;;;;;;5.15;3.00;;;15.00;99.90;;;;;;5060114;28;20053;-65
2023/08/16 02:30:41;;;;;;;4.65;2.72;;;14.90;99.90;;;;;;5056154;28;20040;-65
2023/08/16 02:33:06;;;;;;;3.65;2.30;;;15.00;99.90;;;;;;5058757;28;20041;-65
2023/08/16 02:35:32;;;;;;;3.70;2.25;;;14.90;99.90;;;;;;5059044;28;20051;-65
2023/08/16 02:37:58;;;;;;;5.80;2.95;;;15.00;99.90;;;;;;5058804;28;20047;-65
2023/08/16 02:40:24;;;;;;;8.32;3.00;;;15.00;99.90;;;;;;5060064;28;20045;-65
2023/08/16 02:42:50;;;;;;;3.92;2.83;;;15.00;99.90;;;;;;5039577;28;20053;-65
2023/08/16 02:45:17;;;;;;;4.32;2.53;;;15.00;99.90;;;;;;5058748;28;20049;-66
2023/08/16 02:47:44;;;;;;;4.28;2.80;;;15.00;99.90;;;;;;5056364;28;20052;-65
2023/08/16 02:50:10;;;;;;;4.07;2.90;;;15.00;99.90;;;;;;5059997;28;20057;-66
2023/08/16 02:52:36;;;;;;;4.35;2.90;;;15.00;99.90;;;;;;5078145;28;20048;-65
2023/08/16 02:55:02;;;;;;;4.85;2.90;;;15.00;99.90;;;;;;5079008;28;20048;-65
2023/08/16 02:57:27;;;;;;;3.25;2.63;;;15.00;99.90;;;;;;5079872;28;20044;-65
2023/08/16 02:59:54;;;;;;;6.40;2.80;;;15.00;99.90;;;;;;5058953;28;20067;-65
2023/08/16 03:02:19;;;;;;;6.50;3.00;;;15.00;99.90;;;;;;5062037;28;20044;-65
2023/08/16 03:04:45;;;;;;;7.00;2.75;;;15.00;99.90;;;;;;5059287;28;20098;-65
2023/08/16 03:07:12;;;;;;;2.90;2.55;;;15.00;99.90;;;;;;5079932;28;20041;-65
2023/08/16 03:09:39;;;;;;;3.35;2.40;;;14.90;99.90;;;;;;5077918;28;20121;-65
2023/08/16 03:12:05;;;;;;;3.72;2.60;;;14.90;99.90;;;;;;5078519;28;20048;-65
2023/08/16 03:14:31;;;;;;;6.57;2.22;;;14.80;99.90;;;;;;5061468;28;20445;-66
2023/08/16 03:16:58;;;;;;;5.03;2.78;;;14.80;99.90;;;;;;5076963;28;20048;-65
2023/08/16 03:19:23;;;;;;;4.18;2.90;;;14.80;99.90;;;;;;5061571;28;20055;-65
2023/08/16 03:21:49;;;;;;;2.65;2.42;;;14.70;99.90;;;;;;5042033;28;20056;-65
2023/08/16 03:24:15;;;;;;;3.88;2.60;;;14.70;99.90;;;;;;5079718;28;20051;-65
2023/08/16 03:26:41;;;;;;;2.55;2.35;;;14.70;99.90;;;;;;5042332;28;20052;-66
2023/08/16 03:29:07;;;;;;;4.90;2.50;;;14.80;99.90;;;;;;5060418;28;20115;-65
2023/08/16 03:31:32;;;;;;;4.18;2.45;;;14.70;99.90;;;;;;5061029;28;20049;-65
2023/08/16 03:33:58;;;;;;;2.80;2.45;;;14.70;99.90;;;;;;5059014;28;20047;-65
2023/08/16 03:36:24;;;;;;;5.43;2.60;;;14.70;99.90;;;;;;5061504;28;20052;-65
2023/08/16 03:38:50;;;;;;;5.38;2.80;;;14.60;99.90;;;;;;5076540;28;20052;-66
2023/08/16 03:41:16;;;;;;;4.93;2.60;;;14.70;99.90;;;;;;5044397;28;20055;-65
2023/08/16 03:43:42;;;;;;;5.00;2.72;;;14.70;99.90;;;;;;5076468;28;20049;-66
2023/08/16 03:46:07;;;;;;;3.00;2.50;;;14.60;99.90;;;;;;5078689;28;20067;-65
2023/08/16 03:48:34;;;;;;;3.47;2.47;;;14.60;99.90;;;;;;5060525;28;20090;-65
2023/08/16 03:51:00;;;;;;;2.83;2.38;;;14.60;99.90;;;;;;5058553;28;20052;-65
2023/08/16 03:53:25;;;;;;;3.17;2.17;;;14.60;99.90;;;;;;5060901;28;20095;-66
2023/08/16 03:55:58;;;;;;;4.05;2.60;;;14.60;99.90;;;;;;5075642;28;20052;-65
2023/08/16 03:58:24;;;;;;;3.17;2.65;;;14.60;99.90;;;;;;5078278;28;20055;-65
2023/08/16 04:00:51;;;;;;;2.92;2.63;;;14.60;99.90;;;;;;5057970;28;20052;-65
2023/08/16 04:03:18;;;;;;;2.30;2.10;;;14.50;99.90;;;;;;5043138;28;20042;-66
2023/08/16 04:05:44;;;;;;;1.77;1.65;;;14.50;99.90;;;;;;5077301;28;20130;-65
2023/08/16 04:08:09;;;;;;;3.38;1.80;;;14.30;99.90;;;;;;5076171;28;20104;-65
2023/08/16 04:10:36;;;;;;;3.67;1.95;;;14.30;99.90;;;;;;5078216;28;20054;-66
2023/08/16 04:13:02;;;;;;;2.60;2.10;;;14.40;99.90;;;;;;5075386;28;20024;-65
2023/08/16 04:15:28;;;;;;;2.67;2.25;;;14.40;99.90;;;;;;5060331;28;20044;-65
2023/08/16 04:17:55;;;;;;;2.50;2.00;;;14.30;99.90;;;;;;5040935;28;20059;-66
2023/08/16 04:20:21;;;;;;;8.57;2.30;;;14.40;99.90;;;;;;5059966;28;20102;-66
2023/08/16 04:22:47;;;;;;;4.80;2.35;;;14.40;99.90;;;;;;5077183;28;20040;-66
2023/08/16 04:25:13;;;;;;;4.43;2.63;;;14.50;99.90;;;;;;5057797;28;20114;-66
2023/08/16 04:27:41;;;;;;;6.43;2.80;;;14.50;99.90;;;;;;5059920;28;20078;-66
2023/08/16 04:30:07;;;;;;;2.95;2.20;;;14.50;99.90;;;;;;5075309;28;20055;-66
2023/08/16 04:32:33;;;;;;;2.40;2.00;;;14.50;99.90;;;;;;5078257;28;20154;-66
2023/08/16 04:34:59;;;;;;;4.72;2.70;;;14.60;99.90;;;;;;5075580;28;20071;-66
2023/08/16 04:37:24;;;;;;;5.80;2.33;;;14.60;99.90;;;;;;5042875;28;20044;-66
2023/08/16 04:39:50;;;;;;;6.25;2.42;;;14.60;99.90;;;;;;5058938;28;20112;-66
2023/08/16 04:42:16;;;;;;;6.47;3.58;;;14.60;99.90;;;;;;5057977;28;20075;-65
2023/08/16 04:44:42;;;;;;;3.10;2.70;;;14.60;99.90;;;;;;5078191;28;20101;-66
2023/08/16 04:47:08;;;;;;;4.78;3.58;;;14.60;99.90;;;;;;5057143;28;20499;-65
2023/08/16 04:49:34;;;;;;;8.38;4.05;;;14.60;99.90;;;;;;5060126;28;20102;-66
2023/08/16 04:51:59;;;;;;;6.95;3.80;;;14.50;99.90;;;;;;5075132;28;20075;-65
2023/08/16 04:54:25;;;;;;;7.65;3.50;;;14.50;99.90;;;;;;5078030;28;20124;-66
2023/08/16 04:56:51;;;;;;;7.65;4.47;;;14.50;99.90;;;;;;5058356;28;20052;-66
2023/08/16 04:59:17;;;;;;;4.85;3.50;;;14.40;99.90;;;;;;5076742;28;20076;-65
2023/08/16 05:01:43;;;;;;;3.65;3.10;;;14.40;99.90;;;;;;5077998;28;20575;-66
2023/08/16 05:04:09;;;;;;;8.57;3.20;;;14.30;99.90;;;;;;5057170;28;20070;-65
2023/08/16 05:06:36;;;;;;;5.88;2.88;;;14.40;99.90;;;;;;5077528;28;20100;-65
2023/08/16 05:09:02;;;;;;;3.95;2.97;;;14.60;99.90;;;;;;5057127;28;20039;-65
2023/08/16 05:11:29;;;;;;;7.20;3.40;;;14.60;99.90;;;;;;5059539;28;20074;-65
2023/08/16 05:13:55;;;;;;;5.93;4.53;;;14.80;99.90;;;;;;5075902;28;20048;-66
2023/08/16 05:16:21;;;;;;;6.32;4.13;;;14.80;99.90;;;;;;5078963;28;20044;-65
2023/08/16 05:18:46;;;;;;;8.43;3.78;;;14.80;99.90;;;;;;5063427;28;20108;-66
2023/08/16 05:21:12;;;;;;;5.75;4.28;;;14.80;99.90;;;;;;5078790;28;20123;-66
2023/08/16 05:23:38;;;;;;;4.18;3.70;;;14.80;99.90;;;;;;5081494;28;20051;-65
2023/08/16 05:26:04;;;;;;;7.05;3.85;;;14.90;99.90;;;;;;5078176;28;20052;-66
2023/08/16 05:28:30;;;;;;;9.68;3.85;;;14.90;99.90;;;;;;5046745;28;20123;-65
2023/08/16 05:30:55;;;;;;;5.20;3.72;;;14.80;99.90;;;;;;5060968;28;20041;-65
2023/08/16 05:33:21;;;;;;;5.38;3.22;;;14.80;99.90;;;;;;5062967;28;20100;-66
2023/08/16 05:35:47;;;;;;;7.53;4.45;;;14.80;99.90;;;;;;5063024;28;20051;-66
2023/08/16 05:38:12;;;;;;;8.43;4.05;;;14.80;99.90;;;;;;5060701;28;20052;-65
2023/08/16 05:40:38;;;;;;;5.28;4.03;;;14.80;99.90;;;;;;5063128;28;20048;-65
2023/08/16 05:43:04;;;;;;;4.20;3.80;;;14.90;99.90;;;;;;5078258;28;20094;-65
2023/08/16 05:45:31;;;;;;;8.75;4.43;;;15.00;99.90;;;;;;5081079;28;20052;-66
2023/08/16 05:47:57;;;;;;;6.72;3.95;;;15.10;99.90;;;;;;5060760;28;20076;-66
2023/08/16 05:50:23;;;;;;;5.57;4.10;;;15.30;99.90;;;;;;5062054;28;20523;-65
2023/08/16 05:52:49;;;;;;;7.65;4.25;;;15.50;99.90;;;;;;5045432;28;20052;-65
2023/08/16 05:55:15;;;;;;;5.90;4.72;;;15.50;99.90;;;;;;5078583;28;20048;-67
2023/08/16 05:57:41;;;;;;;5.97;4.90;;;15.50;99.90;;;;;;5062922;28;20048;-67
2023/08/16 06:00:07;;;;;;;8.98;5.10;;;15.50;99.90;;;;;;5043498;28;20185;-66
2023/08/16 06:02:33;;;;;;;6.50;4.40;;;15.60;99.90;;;;;;5062836;28;20078;-66
2023/08/16 06:04:59;;;;;;;7.88;4.85;;;15.70;99.90;;;;;;5076253;28;20036;-67
2023/08/16 06:07:26;;;;;;;;;;;15.90;99.90;;;;;;5080583;28;20051;-67
2023/08/16 06:09:52;;;;;;;7.50;4.97;;;16.00;99.90;;;;;;5061153;28;19930;-67
2023/08/16 06:12:17;;;;;;;12.25;5.47;;;16.10;99.90;;;;;;5060107;28;20072;-66
2023/08/16 06:14:43;;;;;;;9.20;5.28;;;16.30;99.90;;;;;;5080408;28;20043;-67
2023/08/16 06:17:09;;;;;;;7.65;5.68;;;16.50;99.90;;;;;;5077439;28;20621;-67
2023/08/16 06:19:35;;;;;;;8.38;5.35;;;16.50;99.90;;;;;;5080053;28;20040;-66
2023/08/16 06:22:01;;;;;;;8.32;4.97;;;16.60;99.90;;;;;;5059812;28;20104;-66
2023/08/16 06:24:26;;;;;;;8.73;4.63;;;16.60;99.90;;;;;;5080591;28;20063;-66
2023/08/16 06:26:52;;;;;;;9.70;5.30;;;16.60;99.90;;;;;;5078182;28;20051;-66
2023/08/16 06:29:18;;;;;;;9.75;5.05;;;16.60;99.90;;;;;;5061048;28;20037;-66
2023/08/16 06:31:44;;;;;;;6.90;4.70;;;16.60;99.90;;;;;;5080523;28;20063;-67
2023/08/16 06:34:09;;;;;;;9.20;5.38;;;16.60;99.90;;;;;;5077026;28;20036;-66
2023/08/16 06:36:35;;;;;;;10.10;5.97;;;16.70;99.90;;;;;;5061725;28;20044;-66
2023/08/16 06:39:01;;;;;;;8.90;5.50;;;16.70;99.90;;;;;;5077113;28;20550;-66
2023/08/16 06:41:26;;;;;;;8.30;5.53;;;16.70;99.90;;;;;;5079816;28;20487;-66
2023/08/16 06:43:52;;;;;;;6.50;5.30;;;16.80;99.90;;;;;;5077874;28;20050;-66
2023/08/16 06:46:18;;;;;;;9.20;5.55;;;16.80;99.90;;;;;;5060765;28;20056;-66
2023/08/16 06:48:44;;;;;;;13.38;5.28;;;16.90;99.90;;;;;;5079711;28;20045;-66
2023/08/16 06:51:09;;;;;;;11.90;5.97;;;16.90;99.90;;;;;;5058983;28;20052;-67
2023/08/16 06:53:38;;;;;;;9.82;6.10;;;17.10;99.90;;;;;;5061711;28;20060;-68
2023/08/16 06:56:04;;;;;;;11.68;6.22;;;17.10;99.90;;;;;;5077181;28;20098;-67
2023/08/16 06:58:30;;;;;;;7.45;5.15;;;17.20;99.90;;;;;;5062081;28;20105;-67
2023/08/16 07:00:58;;;;;;;7.63;5.55;;;17.30;99.90;;;;;;5043430;28;20414;-68
2023/08/16 07:03:24;;;;;;;8.38;6.40;;;17.30;99.90;;;;;;5044473;28;20053;-67
2023/08/16 07:05:51;;;;;;;12.00;6.65;;;17.40;99.90;;;;;;5079299;28;20054;-66
2023/08/16 07:08:17;;;;;;;11.80;6.30;;;17.50;99.90;;;;;;5042698;28;20074;-67
2023/08/16 07:10:43;;;;;;;10.30;6.97;;;17.50;99.90;;;;;;5061863;28;20044;-67
2023/08/16 07:13:09;;;;;;;9.38;5.90;;;17.50;99.90;;;;;;5076839;28;20041;-67
2023/08/16 07:15:34;;;;;;;11.05;6.85;;;17.50;99.90;;;;;;5079541;28;20778;-66
2023/08/16 07:18:01;;;;;;;13.10;6.35;;;17.70;99.90;;;;;;5058906;28;20056;-67
2023/08/16 07:20:26;;;;;;;9.23;6.15;;;17.70;99.90;;;;;;5060285;28;20048;-66
2023/08/16 07:22:52;;;;;;;8.23;5.82;;;17.80;99.90;;;;;;5060915;28;20044;-67
2023/08/16 07:25:18;;;;;;;12.13;6.43;;;17.90;99.90;;;;;;5076542;28;20051;-65
2023/08/16 07:27:44;;;;;;;8.95;4.93;;;18.00;99.90;;;;;;5061342;28;20054;-66
2023/08/16 07:30:10;;;;;;;7.65;5.32;;;18.10;99.90;;;;;;5076294;28;20072;-66
2023/08/16 07:32:35;;;;;;;9.40;4.35;;;18.20;99.90;;;;;;5078791;28;21032;-65
2023/08/16 07:35:02;;;;;;;6.45;4.63;;;18.30;99.90;;;;;;5076152;28;20048;-66
2023/08/16 07:37:31;;;;;;;11.43;4.68;;;18.40;99.90;;;;;;5078355;28;20230;-66
2023/08/16 07:39:58;;;;;;;5.93;4.85;;;18.50;99.90;;;;;;5060074;28;20051;-66
2023/08/16 07:42:24;;;;;;;6.05;3.97;;;18.60;99.90;;;;;;5076354;28;20102;-66
2023/08/16 07:44:50;;;;;;;5.68;4.00;;;18.70;99.90;;;;;;5078535;28;20045;-66
2023/08/16 07:47:17;;;;;;;9.35;4.13;;;18.80;99.90;;;;;;5075851;28;20048;-65
2023/08/16 07:49:43;;;;;;;8.88;4.30;;;18.80;99.90;;;;;;5078599;28;20061;-65
2023/08/16 07:52:09;;;;;;;8.65;3.92;;;18.70;99.90;;;;;;5075809;28;20546;-65
2023/08/16 07:54:35;;;;;;;8.60;4.47;;;18.80;99.90;;;;;;5026888;28;20053;-67
2023/08/16 07:57:00;;;;;;;9.65;4.28;;;18.90;99.90;;;;;;5059806;28;20074;-65
2023/08/16 07:59:26;;;;;;;8.32;3.55;;;18.90;99.90;;;;;;5058445;28;20872;-65
2023/08/16 08:01:53;;;;;;;8.20;3.75;;;18.90;99.90;;;;;;5078455;28;20045;-66
2023/08/16 08:04:20;;;;;;;7.03;3.45;;;18.90;99.90;;;;;;5040818;28;20063;-65
2023/08/16 08:06:46;;;;;;;8.38;3.63;;;18.90;99.90;;;;;;5078309;28;20086;-66
2023/08/16 08:09:12;;;;;;;11.82;3.08;;;19.00;99.90;;;;;;5057988;28;20725;-66
2023/08/16 08:11:38;;;;;;;6.40;4.05;;;19.10;99.90;;;;;;5060122;28;20048;-67
2023/08/16 08:14:04;;;;;;;5.22;3.30;;;19.00;99.90;;;;;;5042674;28;20050;-66
2023/08/16 08:16:29;;;;;;;6.53;3.40;;;19.00;99.90;;;;;;5058470;28;20079;-65
2023/08/16 08:18:55;;;;;;;4.68;3.80;;;19.10;99.90;;;;;;5077010;28;20395;-66
2023/08/16 08:21:21;;;;;;;8.18;3.47;;;19.20;99.90;;;;;;5053064;28;20049;-66
2023/08/16 08:23:47;;;;;;;9.70;3.10;;;19.40;99.90;;;;;;5058295;28;20116;-65
2023/08/16 08:26:13;;;;;;;5.22;2.58;;;19.50;99.90;;;;;;5037230;28;20111;-65
2023/08/16 08:28:39;;;;;;;5.93;2.72;;;19.70;99.90;;;;;;5023573;28;20132;-65
2023/08/16 08:31:05;;;;;;;10.05;3.20;;;19.60;99.90;;;;;;5022263;28;20079;-65
2023/08/16 08:33:31;;;;;;;5.47;3.10;;;19.60;99.90;;;;;;5021694;28;20108;-66
2023/08/16 08:35:57;;;;;;;4.85;3.20;;;19.70;99.90;;;;;;5057885;28;20082;-66
2023/08/16 08:38:24;;;;;;;11.65;3.72;;;19.80;99.90;;;;;;5055053;28;20104;-66
2023/08/16 08:40:57;;;;;;;6.80;3.60;;;19.90;99.90;;;;;;5039750;28;20080;-65
2023/08/16 08:43:28;;;;;;;5.60;3.00;;;19.90;99.90;;;;;;5036937;28;20126;-66
2023/08/16 08:46:00;;;;;;;5.20;3.15;;;19.90;99.90;;;;;;5057375;28;20139;-66
2023/08/16 08:48:29;;;;;;;8.02;3.22;;;19.90;99.90;;;;;;5056845;28;20045;-66
2023/08/16 08:50:55;;;;;;;7.68;2.90;;;19.90;99.90;;;;;;5021049;28;20057;-66
2023/08/16 08:53:22;;;;;;;3.45;2.88;;;19.90;99.90;;;;;;5057628;28;20353;-65
2023/08/16 08:55:52;;;;;;;5.40;2.95;;;20.00;99.90;;;;;;5053041;28;20076;-65
2023/08/16 08:58:19;;;;;;;7.10;3.10;;;20.00;99.90;;;;;;5023260;28;20132;-65
2023/08/16 09:00:45;;;;;;;10.30;3.40;;;20.20;99.90;;;;;;5053670;28;20056;-65
2023/08/16 09:03:12;;;;;;;8.02;3.70;;;20.10;99.90;;;;;;5038611;28;20055;-65
2023/08/16 09:05:40;;;;;;;5.63;3.25;;;20.00;99.90;;;;;;5056738;28;20063;-65
2023/08/16 09:08:07;;;;;;;5.15;3.05;;;20.00;99.90;;;;;;5055082;28;20171;-65
2023/08/16 09:10:36;;;;;;;5.20;3.20;;;20.00;99.90;;;;;;5056032;28;20064;-65
2023/08/16 09:13:08;;;;;;;8.18;4.30;;;19.90;99.90;;;;;;5053146;28;20045;-65
2023/08/16 09:15:34;;;;;;;4.88;3.28;;;19.90;99.90;;;;;;5049742;28;20056;-65
2023/08/16 09:18:14;;;;;;;6.15;4.30;;;20.00;99.90;;;;;;5045370;28;20101;-65
2023/08/16 09:20:44;;;;;;;5.22;3.17;;;20.10;99.90;;;;;;5037125;28;20107;-67
2023/08/16 09:23:17;;;;;;;4.03;3.38;;;20.10;99.90;;;;;;5057084;28;20246;-64
2023/08/16 09:25:44;;;;;;;6.75;3.83;;;20.10;99.90;;;;;;5051518;28;20048;-65
2023/08/16 09:28:17;;;;;;;9.80;4.97;;;20.20;99.90;;;;;;5055711;28;20056;-66
2023/08/16 09:30:43;;;;;;;6.20;3.38;;;20.20;99.90;;;;;;5051700;28;20072;-66
2023/08/16 09:33:12;;;;;;;8.13;4.00;;;20.20;99.90;;;;;;5055087;28;20037;-67
2023/08/16 09:35:49;;;;;;;6.72;3.40;;;20.20;99.90;;;;;;5055124;28;20041;-66
2023/08/16 09:38:15;;;;;;;8.43;3.92;;;20.30;99.90;;;;;;5036357;28;20045;-66
2023/08/16 09:40:49;;;;;;;4.40;3.22;;;20.30;99.90;;;;;;5056988;28;20041;-66
2023/08/16 09:43:15;;;;;;;5.80;4.00;;;20.30;99.90;;;;;;5052861;28;20041;-66
2023/08/16 09:45:42;;;;;;;8.73;3.42;;;20.40;99.90;;;;;;5054094;28;20045;-66
2023/08/16 09:48:08;;;;;;;5.13;3.58;;;20.30;99.90;;;;;;5037491;28;20098;-66
2023/08/16 09:50:35;;;;;;;7.75;3.45;;;20.40;99.90;;;;;;5056509;28;20044;-66
2023/08/16 09:53:04;;;;;;;7.93;4.15;;;20.50;99.90;;;;;;5077140;28;20423;-65
2023/08/16 09:55:32;;;;;;;9.82;3.92;;;20.30;99.90;;;;;;5074194;28;20541;-64
2023/08/16 09:57:59;;;;;;;11.50;3.50;;;20.50;99.90;;;;;;5059192;28;20051;-65
2023/08/16 10:00:30;;;;;;;4.65;2.67;;;20.60;99.90;;;;;;5056008;28;20404;-66
2023/08/16 10:02:58;;;;;;;6.40;2.53;;;20.60;99.90;;;;;;5080067;28;20048;-66
2023/08/16 10:05:25;;;;;;;11.52;3.50;;;20.70;99.90;;;;;;5061530;28;20052;-65
2023/08/16 10:07:53;;;;;;;6.65;3.40;;;20.70;99.90;;;;;;5078860;28;20040;-65
2023/08/16 10:10:18;;;;;;;9.10;3.20;;;20.70;99.90;;;;;;5062654;28;20049;-65
2023/08/16 10:12:47;;;;;;;8.73;3.10;;;20.70;99.90;;;;;;5077687;28;20136;-65
2023/08/16 10:15:17;;;;;;;4.72;2.42;;;21.00;99.90;;;;;;5062099;28;20056;-65
2023/08/16 10:17:43;;;;;;;3.97;1.80;;;21.00;99.90;;;;;;5077784;28;20043;-65
2023/08/16 10:20:24;;;;;;;5.65;2.75;;;20.90;99.90;;;;;;5079962;28;20095;-64
2023/08/16 10:22:58;;;;;;;2.33;2.00;;;20.90;99.90;;;;;;5080072;28;20056;-65
2023/08/16 10:25:27;;;;;;;3.58;1.77;;;20.90;99.90;;;;;;5077175;28;20073;-65
2023/08/16 10:28:00;;;;;;;9.02;2.75;;;20.90;99.90;;;;;;5080178;28;20067;-65
2023/08/16 10:30:27;;;;;;;2.70;2.00;;;21.00;99.90;;;;;;5077374;28;20049;-66
2023/08/16 10:33:09;;;;;;;3.30;2.10;;;21.10;99.90;;;;;;5080196;28;20079;-65
2023/08/16 10:35:36;;;;;;;3.42;2.13;;;21.10;99.90;;;;;;5061775;28;20052;-65
2023/08/16 10:38:02;;;;;;;4.72;1.83;;;21.10;99.90;;;;;;5043032;28;20534;-65
2023/08/16 10:40:27;;;;;;;7.45;3.15;;;21.10;99.90;;;;;;5062151;28;20056;-65
2023/08/16 10:42:58;;;;;;;4.72;1.95;;;21.20;99.90;;;;;;5059121;28;20092;-65
2023/08/16 10:45:28;;;;;;;3.22;1.95;;;21.20;99.90;;;;;;5080183;28;20052;-65
2023/08/16 10:47:54;;;;;;;5.47;2.40;;;21.20;99.90;;;;;;5059711;28;20121;-65
2023/08/16 10:50:30;;;;;;;5.18;1.98;;;21.20;99.90;;;;;;5060996;28;20611;-65
2023/08/16 10:52:59;;;;;;;5.40;2.40;;;21.30;99.90;;;;;;5079890;28;20143;-66
2023/08/16 10:55:25;;;;;;;4.93;2.70;;;21.20;99.90;;;;;;5059088;28;20053;-65
2023/08/16 10:57:54;;;;;;;3.72;1.98;;;21.30;99.90;;;;;;5079630;28;20654;-65
2023/08/16 11:00:29;;;;;;;4.05;1.67;;;21.20;99.90;;;;;;5042036;28;20686;-65
2023/08/16 11:02:54;;;;;;;2.58;1.70;;;21.20;99.90;;;;;;5079009;28;20052;-65
2023/08/16 11:05:24;;;;;;;4.28;2.00;;;21.20;99.90;;;;;;5060212;28;20127;-65
2023/08/16 11:07:50;;;;;;;2.67;1.80;;;21.10;99.90;;;;;;5077479;28;20090;-64
2023/08/16 11:10:15;;;;;;;2.78;1.65;;;21.20;99.90;;;;;;5061508;28;20052;-65
2023/08/16 11:12:41;;;;;;;3.03;1.67;;;21.20;99.90;;;;;;5041133;28;20048;-65
2023/08/16 11:15:09;;;;;;;3.47;1.60;;;21.20;99.90;;;;;;5060952;28;20051;-65
2023/08/16 11:17:35;;;;;;;5.25;2.35;;;21.20;99.90;;;;;;5076097;28;20059;-64
2023/08/16 11:20:04;;;;;;;5.60;2.15;;;21.10;99.90;;;;;;5060740;28;20045;-65
2023/08/16 11:22:31;;;;;;;6.60;2.40;;;21.20;99.90;;;;;;5043328;28;20048;-64
2023/08/16 11:25:00;;;;;;;3.85;1.70;;;21.20;99.90;;;;;;5059077;28;20063;-65
2023/08/16 11:27:28;;;;;;;4.38;1.38;;;21.20;99.90;;;;;;5078733;28;20551;-65
2023/08/16 11:29:54;;;;;;;2.83;1.58;;;21.20;99.90;;;;;;5075914;28;20127;-65
2023/08/16 11:32:40;;;;;;;2.63;1.45;;;21.30;99.90;;;;;;5079094;28;20052;-65
2023/08/16 11:35:11;;;;;;;4.55;1.75;;;21.30;99.90;;;;;;5042554;28;20538;-65
2023/08/16 11:37:41;;;;;;;3.50;1.63;;;21.30;99.90;;;;;;5077688;28;20040;-65
2023/08/16 11:40:09;;;;;;;3.47;1.67;;;21.30;99.90;;;;;;5060907;28;20047;-65
2023/08/16 11:42:35;;;;;;;4.28;1.30;;;21.40;99.90;;;;;;5041415;28;20045;-66
2023/08/16 11:45:03;;;;;;;6.90;1.85;;;21.30;99.90;;;;;;5078914;28;20041;-65
2023/08/16 11:47:29;;;;;;;9.18;2.30;;;21.40;99.90;;;;;;5076049;28;20049;-66
2023/08/16 11:49:55;;;;;;;7.28;1.95;;;21.40;99.90;;;;;;5078511;28;20056;-66
2023/08/16 11:52:25;;;;;;;5.20;2.10;;;21.50;99.90;;;;;;5076835;28;20052;-65
2023/08/16 11:55:07;;;;;;;2.05;1.50;;;21.50;99.90;;;;;;5058938;28;20056;-66
2023/08/16 11:57:42;;;;;;;;;;;21.60;99.90;;;;;;5061326;28;20048;-66
2023/08/16 12:00:08;;;;;;;4.20;2.28;;;21.70;99.90;;;;;;5057651;28;19931;-65
2023/08/16 12:02:34;;;;;;;6.35;1.70;;;21.60;99.90;;;;;;5078445;28;20059;-66
2023/08/16 12:05:11;;;;;;;2.20;1.58;;;21.70;99.90;;;;;;5075749;28;20036;-65
2023/08/16 12:07:47;;;;;;;4.70;1.30;;;21.80;99.90;;;;;;5076792;28;20053;-65
2023/08/16 12:10:23;;;;;;;3.72;1.73;;;21.90;99.90;;;;;;5043215;28;20135;-65
2023/08/16 12:12:52;;;;;;;3.50;1.60;;;21.90;99.90;;;;;;5056988;28;20040;-65
2023/08/16 12:15:23;;;;;;;3.22;1.50;;;21.80;99.90;;;;;;5077991;28;20052;-65
2023/08/16 12:17:49;;;;;;;3.55;1.60;;;21.90;99.90;;;;;;5057234;28;20084;-66
2023/08/16 12:20:15;;;;;;;3.20;1.48;;;21.90;99.90;;;;;;5077251;28;20044;-65
2023/08/16 12:22:41;;;;;;;2.95;1.40;;;22.00;99.90;;;;;;5077417;28;20066;-65
2023/08/16 12:25:07;;;;;;;6.43;1.50;;;22.10;99.90;;;;;;5074164;28;20056;-65
2023/08/16 12:27:33;;;;;;;1.27;1.10;;;22.10;99.90;;;;;;5059978;28;20064;-65
2023/08/16 12:29:59;;;;;;;6.22;1.85;;;22.10;99.90;;;;;;5074882;28;20044;-65
2023/08/16 12:32:25;;;;;;;2.75;1.75;;;22.10;99.90;;;;;;5059671;28;20044;-65
2023/08/16 12:34:50;;;;;;;1.92;1.40;;;22.10;99.90;;;;;;5075107;28;20044;-65
2023/08/16 12:37:16;;;;;;;1.70;1.10;;;22.20;99.90;;;;;;5059490;28;20177;-66
2023/08/16 12:39:42;;;;;;;2.50;1.08;;;22.30;99.90;;;;;;5058847;28;20089;-66
2023/08/16 12:42:07;;;;;;;1.77;1.33;;;22.30;99.90;;;;;;5057484;28;20480;-66
2023/08/16 12:44:33;;;;;;;1.67;1.25;;;22.40;99.90;;;;;;5059879;28;20048;-67
2023/08/16 12:46:59;;;;;;;3.75;1.45;;;22.60;99.90;;;;;;5056593;28;20502;-68